sensor_id;sensor_type;location;lat;lon;timestamp;temperature;humidity
2625;DHT22;1322;53.256;10.386;2023-01-26T00:00:49;1.50;99.90
2625;DHT22;1322;53.256;10.386;2023-01-26T00:03:15;1.60;99.90
2625;DHT22;1322;53.256;10.386;2023-01-26T00:05:41;1.60;99.90
2625;DHT22;1322;53.256;10.386;2023-01-26T00:08:07;1.70;99.90
2625;DHT22;1322;53.256;10.386;2023-01-26T00:10:38;1.80;99.90
2625;DHT22;1322;53.256;10.386;2023-01-26T00:13:04;1.80;99.90
2625;DHT22;1322;53.256;10.386;2023-01-26T00:15:34;1.80;99.90
2625;DHT22;1322;53.256;10.386;2023-01-26T00:18:01;1.80;99.90
2625;DHT22;1322;53.256;10.386;2023-01-26T00:20:27;1.80;99.90
2625;DHT22;1322;53.256;10.386;2023-01-26T00:22:53;1.80;99.90
2625;DHT22;1322;53.256;10.386;2023-01-26T00:25:19;1.80;99.90
2625;DHT22;1322;53.256;10.386;2023-01-26T00:27:44;1.80;99.90
2625;DHT22;1322;53.256;10.386;2023-01-26T00:30:10;1.90;99.90
2625;DHT22;1322;53.256;10.386;2023-01-26T00:32:36;1.90;99.90
2625;DHT22;1322;53.256;10.386;2023-01-26T00:35:03;1.90;99.90
2625;DHT22;1322;53.256;10.386;2023-01-26T00:37:29;1.90;99.90
2625;DHT22;1322;53.256;10.386;2023-01-26T00:39:54;1.90;99.90
2625;DHT22;1322;53.256;10.386;2023-01-26T00:42:20;2.00;99.90
2625;DHT22;1322;53.256;10.386;2023-01-26T00:44:47;2.00;99.90
2625;DHT22;1322;53.256;10.386;2023-01-26T00:47:13;2.00;99.90
2625;DHT22;1322;53.256;10.386;2023-01-26T00:49:38;1.90;99.90
2625;DHT22;1322;53.256;10.386;2023-01-26T00:52:05;1.90;99.90
2625;DHT22;1322;53.256;10.386;2023-01-26T00:54:31;1.90;99.90
2625;DHT22;1322;53.256;10.386;2023-01-26T00:56:57;1.90;99.90
2625;DHT22;1322;53.256;10.386;2023-01-26T00:59:23;2.10;99.90
2625;DHT22;1322;53.256;10.386;2023-01-26T01:01:49;2.10;99.90
2625;DHT22;1322;53.256;10.386;2023-01-26T01:04:14;2.10;99.90
2625;DHT22;1322;53.256;10.386;2023-01-26T01:06:41;2.10;99.90
2625;DHT22;1322;53.256;10.386;2023-01-26T01:09:07;2.10;99.90
2625;DHT22;1322;53.256;10.386;2023-01-26T01:11:32;2.10;99.90
2625;DHT22;1322;53.256;10.386;2023-01-26T01:13:58;2.10;99.90
2625;DHT22;1322;53.256;10.386;2023-01-26T01:16:24;2.00;99.90
2625;DHT22;1322;53.256;10.386;2023-01-26T01:18:53;1.90;99.90
2625;DHT22;1322;53.256;10.386;2023-01-26T01:21:20;1.90;99.90
2625;DHT22;1322;53.256;10.386;2023-01-26T01:23:46;1.90;99.90
2625;DHT22;1322;53.256;10.386;2023-01-26T01:26:12;1.90;99.90
2625;DHT22;1322;53.256;10.386;2023-01-26T01:28:38;1.90;99.90
2625;DHT22;1322;53.256;10.386;2023-01-26T01:31:06;1.80;99.90
2625;DHT22;1322;53.256;10.386;2023-01-26T01:33:31;1.80;99.90
2625;DHT22;1322;53.256;10.386;2023-01-26T01:35:59;1.80;99.90
2625;DHT22;1322;53.256;10.386;2023-01-26T01:38:25;1.80;99.90
2625;DHT22;1322;53.256;10.386;2023-01-26T01:40:52;1.80;99.90
2625;DHT22;1322;53.256;10.386;2023-01-26T01:43:18;1.80;99.90
2625;DHT22;1322;53.256;10.386;2023-01-26T01:45:45;1.80;99.90
2625;DHT22;1322;53.256;10.386;2023-01-26T01:48:30;1.90;99.90
2625;DHT22;1322;53.256;10.386;2023-01-26T01:51:07;1.80;99.90
2625;DHT22;1322;53.256;10.386;2023-01-26T01:53:39;1.80;99.90
2625;DHT22;1322;53.256;10.386;2023-01-26T01:56:10;1.80;99.90
2625;DHT22;1322;53.256;10.386;2023-01-26T01:58:40;1.90;99.90
2625;DHT22;1322;53.256;10.386;2023-01-26T02:01:07;2.00;99.90
2625;DHT22;1322;53.256;10.386;2023-01-26T02:03:34;2.00;99.90
2625;DHT22;1322;53.256;10.386;2023-01-26T02:08:33;1.90;99.90
2625;DHT22;1322;53.256;10.386;2023-01-26T02:11:04;2.00;99.90
2625;DHT22;1322;53.256;10.386;2023-01-26T02:13:32;2.00;99.90
2625;DHT22;1322;53.256;10.386;2023-01-26T02:15:59;2.10;99.90
2625;DHT22;1322;53.256;10.386;2023-01-26T02:18:25;2.20;99.90
2625;DHT22;1322;53.256;10.386;2023-01-26T02:20:53;2.20;99.90
2625;DHT22;1322;53.256;10.386;2023-01-26T02:23:41;2.30;99.90
2625;DHT22;1322;53.256;10.386;2023-01-26T02:26:21;2.20;99.90
2625;DHT22;1322;53.256;10.386;2023-01-26T02:28:47;2.20;99.90
2625;DHT22;1322;53.256;10.386;2023-01-26T02:31:14;2.10;99.90
2625;DHT22;1322;53.256;10.386;2023-01-26T02:33:41;2.10;99.90
2625;DHT22;1322;53.256;10.386;2023-01-26T02:36:23;2.10;99.90
2625;DHT22;1322;53.256;10.386;2023-01-26T02:39:12;2.20;99.90
2625;DHT22;1322;53.256;10.386;2023-01-26T02:41:42;2.10;99.90
2625;DHT22;1322;53.256;10.386;2023-01-26T02:44:27;2.20;99.90
2625;DHT22;1322;53.256;10.386;2023-01-26T02:46:53;2.20;99.90
2625;DHT22;1322;53.256;10.386;2023-01-26T02:49:19;2.30;99.90
2625;DHT22;1322;53.256;10.386;2023-01-26T02:52:04;2.30;99.90
2625;DHT22;1322;53.256;10.386;2023-01-26T02:54:29;2.40;99.90
2625;DHT22;1322;53.256;10.386;2023-01-26T02:57:13;2.40;99.90
2625;DHT22;1322;53.256;10.386;2023-01-26T02:59:39;2.40;99.90
2625;DHT22;1322;53.256;10.386;2023-01-26T03:02:05;2.40;99.90
2625;DHT22;1322;53.256;10.386;2023-01-26T03:04:31;2.50;99.90
2625;DHT22;1322;53.256;10.386;2023-01-26T03:06:57;2.50;99.90
2625;DHT22;1322;53.256;10.386;2023-01-26T03:09:22;2.50;99.90
2625;DHT22;1322;53.256;10.386;2023-01-26T03:11:48;2.60;99.90
2625;DHT22;1322;53.256;10.386;2023-01-26T03:14:14;2.40;99.90
2625;DHT22;1322;53.256;10.386;2023-01-26T03:16:40;2.40;99.90
2625;DHT22;1322;53.256;10.386;2023-01-26T03:19:15;2.50;99.90
2625;DHT22;1322;53.256;10.386;2023-01-26T03:22:00;2.40;99.90
2625;DHT22;1322;53.256;10.386;2023-01-26T03:24:44;2.40;99.90
2625;DHT22;1322;53.256;10.386;2023-01-26T03:27:37;2.40;99.90
2625;DHT22;1322;53.256;10.386;2023-01-26T03:30:03;2.30;99.90
2625;DHT22;1322;53.256;10.386;2023-01-26T03:32:29;2.30;99.90
2625;DHT22;1322;53.256;10.386;2023-01-26T03:34:54;2.40;99.90
2625;DHT22;1322;53.256;10.386;2023-01-26T03:37:20;2.30;99.90
2625;DHT22;1322;53.256;10.386;2023-01-26T03:39:48;2.30;99.90
2625;DHT22;1322;53.256;10.386;2023-01-26T03:42:32;2.20;99.90
2625;DHT22;1322;53.256;10.386;2023-01-26T03:45:16;2.20;99.90
2625;DHT22;1322;53.256;10.386;2023-01-26T03:48:09;2.20;99.90
2625;DHT22;1322;53.256;10.386;2023-01-26T03:50:53;2.20;99.90
2625;DHT22;1322;53.256;10.386;2023-01-26T03:53:37;2.20;99.90
2625;DHT22;1322;53.256;10.386;2023-01-26T03:56:21;2.20;99.90
2625;DHT22;1322;53.256;10.386;2023-01-26T03:58:53;2.20;99.90
2625;DHT22;1322;53.256;10.386;2023-01-26T04:01:21;2.20;99.90
2625;DHT22;1322;53.256;10.386;2023-01-26T04:03:51;2.20;99.90
2625;DHT22;1322;53.256;10.386;2023-01-26T04:06:36;2.20;99.90
2625;DHT22;1322;53.256;10.386;2023-01-26T04:09:22;2.20;99.90
2625;DHT22;1322;53.256;10.386;2023-01-26T04:11:47;2.30;99.90
2625;DHT22;1322;53.256;10.386;2023-01-26T04:14:14;2.30;99.90
2625;DHT22;1322;53.256;10.386;2023-01-26T04:17:00;2.30;99.90
2625;DHT22;1322;53.256;10.386;2023-01-26T04:19:44;2.30;99.90
2625;DHT22;1322;53.256;10.386;2023-01-26T04:22:29;2.30;99.90
2625;DHT22;1322;53.256;10.386;2023-01-26T04:24:55;2.30;99.90
2625;DHT22;1322;53.256;10.386;2023-01-26T04:27:22;2.30;99.90
2625;DHT22;1322;53.256;10.386;2023-01-26T04:29:47;2.40;99.90
2625;DHT22;1322;53.256;10.386;2023-01-26T04:32:13;2.40;99.90
2625;DHT22;1322;53.256;10.386;2023-01-26T04:34:39;2.40;99.90
2625;DHT22;1322;53.256;10.386;2023-01-26T04:37:04;2.50;99.90
2625;DHT22;1322;53.256;10.386;2023-01-26T04:39:30;2.50;99.90
2625;DHT22;1322;53.256;10.386;2023-01-26T04:41:56;2.40;99.90
2625;DHT22;1322;53.256;10.386;2023-01-26T04:44:21;2.40;99.90
2625;DHT22;1322;53.256;10.386;2023-01-26T04:46:47;2.40;99.90
2625;DHT22;1322;53.256;10.386;2023-01-26T04:49:13;2.40;99.90
2625;DHT22;1322;53.256;10.386;2023-01-26T04:51:39;2.40;99.90
2625;DHT22;1322;53.256;10.386;2023-01-26T04:54:05;2.30;99.90
2625;DHT22;1322;53.256;10.386;2023-01-26T04:56:34;2.40;99.90
2625;DHT22;1322;53.256;10.386;2023-01-26T04:59:01;2.50;99.90
2625;DHT22;1322;53.256;10.386;2023-01-26T05:01:27;2.50;99.90
2625;DHT22;1322;53.256;10.386;2023-01-26T05:03:53;2.50;99.90
2625;DHT22;1322;53.256;10.386;2023-01-26T05:06:19;2.50;99.90
2625;DHT22;1322;53.256;10.386;2023-01-26T05:08:44;2.50;99.90
2625;DHT22;1322;53.256;10.386;2023-01-26T05:11:10;2.50;99.90
2625;DHT22;1322;53.256;10.386;2023-01-26T05:13:36;2.60;99.90
2625;DHT22;1322;53.256;10.386;2023-01-26T05:16:03;2.60;99.90
2625;DHT22;1322;53.256;10.386;2023-01-26T05:18:29;2.50;99.90
2625;DHT22;1322;53.256;10.386;2023-01-26T05:20:55;2.50;99.90
2625;DHT22;1322;53.256;10.386;2023-01-26T05:23:21;2.50;99.90
2625;DHT22;1322;53.256;10.386;2023-01-26T05:25:46;2.50;99.90
2625;DHT22;1322;53.256;10.386;2023-01-26T05:28:12;2.60;99.90
2625;DHT22;1322;53.256;10.386;2023-01-26T05:30:38;2.60;99.90
2625;DHT22;1322;53.256;10.386;2023-01-26T05:33:05;2.60;99.90
2625;DHT22;1322;53.256;10.386;2023-01-26T05:35:32;2.60;99.90
2625;DHT22;1322;53.256;10.386;2023-01-26T05:37:58;2.50;99.90
2625;DHT22;1322;53.256;10.386;2023-01-26T05:40:24;2.60;99.90
2625;DHT22;1322;53.256;10.386;2023-01-26T05:42:50;2.60;99.90
2625;DHT22;1322;53.256;10.386;2023-01-26T05:45:16;2.60;99.90
2625;DHT22;1322;53.256;10.386;2023-01-26T05:47:43;2.60;99.90
2625;DHT22;1322;53.256;10.386;2023-01-26T05:50:10;2.70;99.90
2625;DHT22;1322;53.256;10.386;2023-01-26T05:52:36;2.70;99.90
2625;DHT22;1322;53.256;10.386;2023-01-26T05:55:02;2.70;99.90
2625;DHT22;1322;53.256;10.386;2023-01-26T05:57:28;2.70;99.90
2625;DHT22;1322;53.256;10.386;2023-01-26T05:59:54;2.80;99.90
2625;DHT22;1322;53.256;10.386;2023-01-26T06:02:19;2.80;99.90
2625;DHT22;1322;53.256;10.386;2023-01-26T06:04:45;2.80;99.90
2625;DHT22;1322;53.256;10.386;2023-01-26T06:07:11;2.80;99.90
2625;DHT22;1322;53.256;10.386;2023-01-26T06:09:38;2.80;99.90
2625;DHT22;1322;53.256;10.386;2023-01-26T06:12:05;2.80;99.90
2625;DHT22;1322;53.256;10.386;2023-01-26T06:14:31;2.70;99.90
2625;DHT22;1322;53.256;10.386;2023-01-26T06:16:56;2.70;99.90
2625;DHT22;1322;53.256;10.386;2023-01-26T06:19:22;2.70;99.90
2625;DHT22;1322;53.256;10.386;2023-01-26T06:21:47;2.80;99.90
2625;DHT22;1322;53.256;10.386;2023-01-26T06:24:13;2.80;99.90
2625;DHT22;1322;53.256;10.386;2023-01-26T06:26:39;2.80;99.90
2625;DHT22;1322;53.256;10.386;2023-01-26T06:29:05;2.90;99.90
2625;DHT22;1322;53.256;10.386;2023-01-26T06:31:31;2.80;99.90
2625;DHT22;1322;53.256;10.386;2023-01-26T06:33:57;2.80;99.90
2625;DHT22;1322;53.256;10.386;2023-01-26T06:36:22;2.80;99.90
2625;DHT22;1322;53.256;10.386;2023-01-26T06:38:49;2.80;99.90
2625;DHT22;1322;53.256;10.386;2023-01-26T06:41:17;2.90;99.90
2625;DHT22;1322;53.256;10.386;2023-01-26T06:43:45;2.90;99.90
2625;DHT22;1322;53.256;10.386;2023-01-26T06:46:11;2.90;99.90
2625;DHT22;1322;53.256;10.386;2023-01-26T06:48:36;2.90;99.90
2625;DHT22;1322;53.256;10.386;2023-01-26T06:53:57;3.00;99.90
2625;DHT22;1322;53.256;10.386;2023-01-26T06:56:24;3.00;99.90
2625;DHT22;1322;53.256;10.386;2023-01-26T06:58:52;3.00;99.90
2625;DHT22;1322;53.256;10.386;2023-01-26T07:01:20;3.00;99.90
2625;DHT22;1322;53.256;10.386;2023-01-26T07:03:47;3.00;99.90
2625;DHT22;1322;53.256;10.386;2023-01-26T07:06:13;2.90;99.90
2625;DHT22;1322;53.256;10.386;2023-01-26T07:08:39;2.90;99.90
2625;DHT22;1322;53.256;10.386;2023-01-26T07:11:05;2.90;99.90
2625;DHT22;1322;53.256;10.386;2023-01-26T07:13:31;3.00;99.90
2625;DHT22;1322;53.256;10.386;2023-01-26T07:16:01;3.00;99.90
2625;DHT22;1322;53.256;10.386;2023-01-26T07:18:27;3.10;99.90
2625;DHT22;1322;53.256;10.386;2023-01-26T07:20:52;3.10;99.90
2625;DHT22;1322;53.256;10.386;2023-01-26T07:23:18;3.10;99.90
2625;DHT22;1322;53.256;10.386;2023-01-26T07:25:43;3.00;99.90
2625;DHT22;1322;53.256;10.386;2023-01-26T07:28:09;3.00;99.90
2625;DHT22;1322;53.256;10.386;2023-01-26T07:30:35;3.10;99.90
2625;DHT22;1322;53.256;10.386;2023-01-26T07:33:01;3.10;99.90
2625;DHT22;1322;53.256;10.386;2023-01-26T07:35:26;3.10;99.90
2625;DHT22;1322;53.256;10.386;2023-01-26T07:37:54;3.10;99.90
2625;DHT22;1322;53.256;10.386;2023-01-26T07:40:19;3.10;99.90
2625;DHT22;1322;53.256;10.386;2023-01-26T07:42:45;3.20;99.90
2625;DHT22;1322;53.256;10.386;2023-01-26T07:45:11;3.20;99.90
2625;DHT22;1322;53.256;10.386;2023-01-26T07:47:37;3.10;99.90
2625;DHT22;1322;53.256;10.386;2023-01-26T07:50:03;3.10;99.90
2625;DHT22;1322;53.256;10.386;2023-01-26T07:52:30;3.20;99.90
2625;DHT22;1322;53.256;10.386;2023-01-26T07:54:55;3.20;99.90
2625;DHT22;1322;53.256;10.386;2023-01-26T07:57:21;3.20;99.90
2625;DHT22;1322;53.256;10.386;2023-01-26T07:59:47;3.20;99.90
2625;DHT22;1322;53.256;10.386;2023-01-26T08:02:12;3.20;99.90
2625;DHT22;1322;53.256;10.386;2023-01-26T08:04:38;3.30;99.90
2625;DHT22;1322;53.256;10.386;2023-01-26T08:07:03;3.20;99.90
2625;DHT22;1322;53.256;10.386;2023-01-26T08:09:29;3.20;99.90
2625;DHT22;1322;53.256;10.386;2023-01-26T08:11:57;3.10;99.90
2625;DHT22;1322;53.256;10.386;2023-01-26T08:14:23;3.20;99.90
2625;DHT22;1322;53.256;10.386;2023-01-26T08:16:49;3.30;99.90
2625;DHT22;1322;53.256;10.386;2023-01-26T08:19:15;3.30;99.90
2625;DHT22;1322;53.256;10.386;2023-01-26T08:21:40;3.30;99.90
2625;DHT22;1322;53.256;10.386;2023-01-26T08:24:06;3.30;99.90
2625;DHT22;1322;53.256;10.386;2023-01-26T08:26:32;3.30;99.90
2625;DHT22;1322;53.256;10.386;2023-01-26T08:28:57;3.30;99.90
2625;DHT22;1322;53.256;10.386;2023-01-26T08:31:23;3.30;99.90
2625;DHT22;1322;53.256;10.386;2023-01-26T08:33:51;3.40;99.90
2625;DHT22;1322;53.256;10.386;2023-01-26T08:36:17;3.40;99.90
2625;DHT22;1322;53.256;10.386;2023-01-26T08:38:43;3.40;99.90
2625;DHT22;1322;53.256;10.386;2023-01-26T08:41:09;3.50;99.90
2625;DHT22;1322;53.256;10.386;2023-01-26T08:43:35;3.50;99.90
2625;DHT22;1322;53.256;10.386;2023-01-26T08:46:01;3.50;99.90
2625;DHT22;1322;53.256;10.386;2023-01-26T08:48:28;3.60;99.90
2625;DHT22;1322;53.256;10.386;2023-01-26T08:50:57;3.60;99.90
2625;DHT22;1322;53.256;10.386;2023-01-26T08:53:24;3.70;99.90
2625;DHT22;1322;53.256;10.386;2023-01-26T08:55:50;3.70;99.90
2625;DHT22;1322;53.256;10.386;2023-01-26T08:58:16;3.70;99.90
2625;DHT22;1322;53.256;10.386;2023-01-26T09:00:41;3.70;99.90
2625;DHT22;1322;53.256;10.386;2023-01-26T09:03:07;3.70;99.90
2625;DHT22;1322;53.256;10.386;2023-01-26T09:05:37;3.80;99.90
2625;DHT22;1322;53.256;10.386;2023-01-26T09:08:04;3.80;99.90
2625;DHT22;1322;53.256;10.386;2023-01-26T09:10:30;3.80;99.90
2625;DHT22;1322;53.256;10.386;2023-01-26T09:12:59;3.80;99.90
2625;DHT22;1322;53.256;10.386;2023-01-26T09:15:26;3.80;99.90
2625;DHT22;1322;53.256;10.386;2023-01-26T09:17:52;3.80;99.90
2625;DHT22;1322;53.256;10.386;2023-01-26T09:20:18;3.80;99.90
2625;DHT22;1322;53.256;10.386;2023-01-26T09:22:44;3.80;99.90
2625;DHT22;1322;53.256;10.386;2023-01-26T09:25:10;3.80;99.90
2625;DHT22;1322;53.256;10.386;2023-01-26T09:27:36;3.80;99.90
2625;DHT22;1322;53.256;10.386;2023-01-26T09:30:04;3.80;99.90
2625;DHT22;1322;53.256;10.386;2023-01-26T09:32:29;3.80;99.90
2625;DHT22;1322;53.256;10.386;2023-01-26T09:34:55;3.80;99.90
2625;DHT22;1322;53.256;10.386;2023-01-26T09:37:21;3.80;99.90
2625;DHT22;1322;53.256;10.386;2023-01-26T09:39:47;3.90;99.90
2625;DHT22;1322;53.256;10.386;2023-01-26T09:42:48;3.90;99.90
2625;DHT22;1322;53.256;10.386;2023-01-26T09:45:30;3.90;99.90
2625;DHT22;1322;53.256;10.386;2023-01-26T09:48:13;4.00;99.90
2625;DHT22;1322;53.256;10.386;2023-01-26T09:50:47;4.00;99.90
2625;DHT22;1322;53.256;10.386;2023-01-26T09:53:27;4.10;99.90
2625;DHT22;1322;53.256;10.386;2023-01-26T09:55:55;4.00;99.90
2625;DHT22;1322;53.256;10.386;2023-01-26T09:59:49;4.10;99.90
2625;DHT22;1322;53.256;10.386;2023-01-26T10:01:55;4.20;99.90
2625;DHT22;1322;53.256;10.386;2023-01-26T10:04:31;4.20;99.90
2625;DHT22;1322;53.256;10.386;2023-01-26T10:07:03;4.20;99.90
2625;DHT22;1322;53.256;10.386;2023-01-26T10:09:31;4.30;99.90
2625;DHT22;1322;53.256;10.386;2023-01-26T10:12:01;4.40;99.90
2625;DHT22;1322;53.256;10.386;2023-01-26T10:17:41;4.50;99.90
2625;DHT22;1322;53.256;10.386;2023-01-26T10:20:17;4.50;99.90
2625;DHT22;1322;53.256;10.386;2023-01-26T10:22:54;4.50;99.90
2625;DHT22;1322;53.256;10.386;2023-01-26T10:25:38;4.50;99.90
2625;DHT22;1322;53.256;10.386;2023-01-26T10:30:40;4.60;99.90
2625;DHT22;1322;53.256;10.386;2023-01-26T10:33:26;4.50;99.90
2625;DHT22;1322;53.256;10.386;2023-01-26T10:35:54;4.50;99.90
2625;DHT22;1322;53.256;10.386;2023-01-26T10:38:27;4.50;99.90
2625;DHT22;1322;53.256;10.386;2023-01-26T10:40:53;4.60;99.90
2625;DHT22;1322;53.256;10.386;2023-01-26T10:43:19;4.50;99.90
2625;DHT22;1322;53.256;10.386;2023-01-26T10:45:46;4.60;99.90
2625;DHT22;1322;53.256;10.386;2023-01-26T10:48:18;4.70;99.90
2625;DHT22;1322;53.256;10.386;2023-01-26T10:50:45;4.70;99.90
2625;DHT22;1322;53.256;10.386;2023-01-26T10:53:29;4.60;99.90
2625;DHT22;1322;53.256;10.386;2023-01-26T10:56:03;4.70;99.90
2625;DHT22;1322;53.256;10.386;2023-01-26T11:01:04;4.80;99.90
2625;DHT22;1322;53.256;10.386;2023-01-26T11:03:34;4.80;99.90
2625;DHT22;1322;53.256;10.386;2023-01-26T11:06:18;4.80;99.90
2625;DHT22;1322;53.256;10.386;2023-01-26T11:08:43;4.80;99.90
2625;DHT22;1322;53.256;10.386;2023-01-26T11:11:24;4.90;99.90
2625;DHT22;1322;53.256;10.386;2023-01-26T11:14:15;4.90;99.90
2625;DHT22;1322;53.256;10.386;2023-01-26T11:16:46;5.00;99.90
2625;DHT22;1322;53.256;10.386;2023-01-26T11:19:46;5.10;99.90
2625;DHT22;1322;53.256;10.386;2023-01-26T11:22:19;5.10;99.90
2625;DHT22;1322;53.256;10.386;2023-01-26T11:25:25;5.20;99.90
2625;DHT22;1322;53.256;10.386;2023-01-26T11:30:50;5.40;99.90
2625;DHT22;1322;53.256;10.386;2023-01-26T11:33:29;5.40;99.90
2625;DHT22;1322;53.256;10.386;2023-01-26T11:38:37;5.10;99.90
2625;DHT22;1322;53.256;10.386;2023-01-26T11:41:23;5.10;99.90
2625;DHT22;1322;53.256;10.386;2023-01-26T11:47:22;5.00;99.90
2625;DHT22;1322;53.256;10.386;2023-01-26T12:01:06;4.90;99.90
2625;DHT22;1322;53.256;10.386;2023-01-26T12:03:48;4.70;99.90
2625;DHT22;1322;53.256;10.386;2023-01-26T12:06:27;4.70;99.90
2625;DHT22;1322;53.256;10.386;2023-01-26T12:12:42;4.30;99.90
2625;DHT22;1322;53.256;10.386;2023-01-26T12:15:36;4.10;99.90
2625;DHT22;1322;53.256;10.386;2023-01-26T12:18:12;4.10;99.90
2625;DHT22;1322;53.256;10.386;2023-01-26T12:20:57;4.00;99.90
2625;DHT22;1322;53.256;10.386;2023-01-26T12:26:01;4.00;99.90
2625;DHT22;1322;53.256;10.386;2023-01-26T12:28:37;3.80;99.90
2625;DHT22;1322;53.256;10.386;2023-01-26T12:33:38;3.90;99.90
2625;DHT22;1322;53.256;10.386;2023-01-26T12:42:13;3.90;99.90
2625;DHT22;1322;53.256;10.386;2023-01-26T12:44:51;3.90;99.90
2625;DHT22;1322;53.256;10.386;2023-01-26T12:47:38;3.80;99.90
2625;DHT22;1322;53.256;10.386;2023-01-26T12:55:35;3.80;99.90
2625;DHT22;1322;53.256;10.386;2023-01-26T12:58:10;3.80;99.90
2625;DHT22;1322;53.256;10.386;2023-01-26T13:00:38;3.70;99.90
2625;DHT22;1322;53.256;10.386;2023-01-26T13:03:12;3.60;99.90
2625;DHT22;1322;53.256;10.386;2023-01-26T13:05:54;3.60;99.90
2625;DHT22;1322;53.256;10.386;2023-01-26T13:10:56;3.80;99.90
2625;DHT22;1322;53.256;10.386;2023-01-26T13:13:27;3.90;99.90
2625;DHT22;1322;53.256;10.386;2023-01-26T13:18:50;3.90;99.90
2625;DHT22;1322;53.256;10.386;2023-01-26T13:26:58;3.70;99.90
2625;DHT22;1322;53.256;10.386;2023-01-26T13:31:53;3.70;99.90
2625;DHT22;1322;53.256;10.386;2023-01-26T13:36:57;3.70;99.90
2625;DHT22;1322;53.256;10.386;2023-01-26T13:41:54;3.70;99.90
2625;DHT22;1322;53.256;10.386;2023-01-26T13:44:26;3.70;99.90
2625;DHT22;1322;53.256;10.386;2023-01-26T13:47:06;3.80;99.90
2625;DHT22;1322;53.256;10.386;2023-01-26T13:52:02;3.80;99.90
2625;DHT22;1322;53.256;10.386;2023-01-26T13:54:28;3.80;99.90
2625;DHT22;1322;53.256;10.386;2023-01-26T13:57:05;3.80;99.90
2625;DHT22;1322;53.256;10.386;2023-01-26T13:59:31;3.80;99.90
2625;DHT22;1322;53.256;10.386;2023-01-26T14:01:58;3.70;99.90
2625;DHT22;1322;53.256;10.386;2023-01-26T14:04:30;3.70;99.90
2625;DHT22;1322;53.256;10.386;2023-01-26T14:07:05;3.80;99.90
2625;DHT22;1322;53.256;10.386;2023-01-26T14:09:43;3.80;99.90
2625;DHT22;1322;53.256;10.386;2023-01-26T14:12:27;3.80;99.90
2625;DHT22;1322;53.256;10.386;2023-01-26T14:14:59;3.80;99.90
2625;DHT22;1322;53.256;10.386;2023-01-26T14:17:34;3.80;99.90
2625;DHT22;1322;53.256;10.386;2023-01-26T14:20:33;3.90;99.90
2625;DHT22;1322;53.256;10.386;2023-01-26T14:23:18;4.10;99.90
2625;DHT22;1322;53.256;10.386;2023-01-26T14:28:40;4.20;99.90
2625;DHT22;1322;53.256;10.386;2023-01-26T14:31:18;4.20;99.90
2625;DHT22;1322;53.256;10.386;2023-01-26T14:33:46;4.20;99.90
2625;DHT22;1322;53.256;10.386;2023-01-26T14:36:14;4.20;99.90
2625;DHT22;1322;53.256;10.386;2023-01-26T14:38:46;4.20;99.90
2625;DHT22;1322;53.256;10.386;2023-01-26T14:41:22;4.20;99.90
2625;DHT22;1322;53.256;10.386;2023-01-26T14:43:53;4.00;99.90
2625;DHT22;1322;53.256;10.386;2023-01-26T14:46:50;4.00;99.90
2625;DHT22;1322;53.256;10.386;2023-01-26T14:49:47;4.00;99.90
2625;DHT22;1322;53.256;10.386;2023-01-26T14:52:25;4.00;99.90
2625;DHT22;1322;53.256;10.386;2023-01-26T14:54:53;4.00;99.90
2625;DHT22;1322;53.256;10.386;2023-01-26T14:57:22;3.90;99.90
2625;DHT22;1322;53.256;10.386;2023-01-26T14:59:55;4.00;99.90
2625;DHT22;1322;53.256;10.386;2023-01-26T15:02:32;4.00;99.90
2625;DHT22;1322;53.256;10.386;2023-01-26T15:05:02;4.10;99.90
2625;DHT22;1322;53.256;10.386;2023-01-26T15:07:41;4.20;99.90
2625;DHT22;1322;53.256;10.386;2023-01-26T15:10:35;4.20;99.90
2625;DHT22;1322;53.256;10.386;2023-01-26T15:15:42;4.00;99.90
2625;DHT22;1322;53.256;10.386;2023-01-26T15:20:43;3.90;99.90
2625;DHT22;1322;53.256;10.386;2023-01-26T15:25:50;4.00;99.90
2625;DHT22;1322;53.256;10.386;2023-01-26T15:28:18;4.00;99.90
2625;DHT22;1322;53.256;10.386;2023-01-26T15:30:49;3.90;99.90
2625;DHT22;1322;53.256;10.386;2023-01-26T15:33:54;3.80;99.90
2625;DHT22;1322;53.256;10.386;2023-01-26T15:36:28;3.70;99.90
2625;DHT22;1322;53.256;10.386;2023-01-26T15:39:20;3.70;99.90
2625;DHT22;1322;53.256;10.386;2023-01-26T15:44:26;3.60;99.90
2625;DHT22;1322;53.256;10.386;2023-01-26T15:46:52;3.70;99.90
2625;DHT22;1322;53.256;10.386;2023-01-26T15:49:19;3.60;99.90
2625;DHT22;1322;53.256;10.386;2023-01-26T15:51:47;3.60;99.90
2625;DHT22;1322;53.256;10.386;2023-01-26T15:54:13;3.60;99.90
2625;DHT22;1322;53.256;10.386;2023-01-26T15:56:38;3.50;99.90
2625;DHT22;1322;53.256;10.386;2023-01-26T15:59:04;3.60;99.90
2625;DHT22;1322;53.256;10.386;2023-01-26T16:01:30;3.60;99.90
2625;DHT22;1322;53.256;10.386;2023-01-26T16:03:56;3.50;99.90
2625;DHT22;1322;53.256;10.386;2023-01-26T16:06:29;3.50;99.90
2625;DHT22;1322;53.256;10.386;2023-01-26T16:08:56;3.50;99.90
2625;DHT22;1322;53.256;10.386;2023-01-26T16:11:27;3.50;99.90
2625;DHT22;1322;53.256;10.386;2023-01-26T16:13:53;3.40;99.90
2625;DHT22;1322;53.256;10.386;2023-01-26T16:16:20;3.50;99.90
2625;DHT22;1322;53.256;10.386;2023-01-26T16:18:46;3.40;99.90
2625;DHT22;1322;53.256;10.386;2023-01-26T16:21:20;3.40;99.90
2625;DHT22;1322;53.256;10.386;2023-01-26T16:23:46;3.40;99.90
2625;DHT22;1322;53.256;10.386;2023-01-26T16:26:15;3.40;99.90
2625;DHT22;1322;53.256;10.386;2023-01-26T16:28:41;3.40;99.90
2625;DHT22;1322;53.256;10.386;2023-01-26T16:31:29;3.40;99.90
2625;DHT22;1322;53.256;10.386;2023-01-26T16:33:55;3.40;99.90
2625;DHT22;1322;53.256;10.386;2023-01-26T16:36:21;3.40;99.90
2625;DHT22;1322;53.256;10.386;2023-01-26T16:38:47;3.40;99.90
2625;DHT22;1322;53.256;10.386;2023-01-26T16:41:25;3.30;99.90
2625;DHT22;1322;53.256;10.386;2023-01-26T16:43:53;3.30;99.90
2625;DHT22;1322;53.256;10.386;2023-01-26T16:46:20;3.30;99.90
2625;DHT22;1322;53.256;10.386;2023-01-26T16:48:45;3.40;99.90
2625;DHT22;1322;53.256;10.386;2023-01-26T16:51:22;3.40;99.90
2625;DHT22;1322;53.256;10.386;2023-01-26T16:53:48;3.40;99.90
2625;DHT22;1322;53.256;10.386;2023-01-26T16:56:15;3.40;99.90
2625;DHT22;1322;53.256;10.386;2023-01-26T16:58:41;3.50;99.90
2625;DHT22;1322;53.256;10.386;2023-01-26T17:01:32;3.50;99.90
2625;DHT22;1322;53.256;10.386;2023-01-26T17:03:59;3.60;99.90
2625;DHT22;1322;53.256;10.386;2023-01-26T17:06:26;3.60;99.90
2625;DHT22;1322;53.256;10.386;2023-01-26T17:08:52;3.60;99.90
2625;DHT22;1322;53.256;10.386;2023-01-26T17:11:23;3.60;99.90
2625;DHT22;1322;53.256;10.386;2023-01-26T17:13:49;3.60;99.90
2625;DHT22;1322;53.256;10.386;2023-01-26T17:16:26;3.60;99.90
2625;DHT22;1322;53.256;10.386;2023-01-26T17:18:57;3.70;99.90
2625;DHT22;1322;53.256;10.386;2023-01-26T17:21:23;3.70;99.90
2625;DHT22;1322;53.256;10.386;2023-01-26T17:23:53;3.60;99.90
2625;DHT22;1322;53.256;10.386;2023-01-26T17:26:19;3.70;99.90
2625;DHT22;1322;53.256;10.386;2023-01-26T17:28:47;3.70;99.90
2625;DHT22;1322;53.256;10.386;2023-01-26T17:31:16;3.70;99.90
2625;DHT22;1322;53.256;10.386;2023-01-26T17:33:43;3.70;99.90
2625;DHT22;1322;53.256;10.386;2023-01-26T17:36:10;3.70;99.90
2625;DHT22;1322;53.256;10.386;2023-01-26T17:38:36;3.70;99.90
2625;DHT22;1322;53.256;10.386;2023-01-26T17:41:02;3.60;99.90
2625;DHT22;1322;53.256;10.386;2023-01-26T17:43:28;3.60;99.90
2625;DHT22;1322;53.256;10.386;2023-01-26T17:46:20;3.60;99.90
2625;DHT22;1322;53.256;10.386;2023-01-26T17:48:46;3.60;99.90
2625;DHT22;1322;53.256;10.386;2023-01-26T17:51:15;3.60;99.90